Time;durP1;ratioP1;P1;durP2;ratioP2;P2;SDS_P1;SDS_P2;PMS_P1;PMS_P2;Temp;Humidity;BMP_temperature;BMP_pressure;BME280_temperature;BME280_humidity;BME280_pressure;Samples;Min_cycle;Max_cycle;Signal;HPM_P1;HPM_P2
2021/10/15 00:02:17;;;;;;;6.73;3.57;;;12.30;70.80;;;;;;5024118;28;20760;-87
2021/10/15 00:04:43;;;;;;;12.03;3.57;;;12.30;29.80;;;;;;5024077;28;20222;-88
2021/10/15 00:07:10;;;;;;;10.03;3.70;;;12.30;1.00;;;;;;5025264;28;20199;-87
2021/10/15 00:09:35;;;;;;;12.13;3.57;;;12.30;1.00;;;;;;5023672;28;20441;-87
2021/10/15 00:12:02;;;;;;;8.47;3.43;;;12.20;1.00;;;;;;5029114;28;20876;-89
2021/10/15 00:14:28;;;;;;;8.03;3.27;;;12.20;1.00;;;;;;5032173;28;20535;-87
2021/10/15 00:16:54;;;;;;;10.13;3.67;;;12.20;1.00;;;;;;5029790;28;20468;-86
2021/10/15 00:19:20;;;;;;;7.30;5.63;;;12.20;1.00;;;;;;5028444;28;20176;-86
2021/10/15 00:21:45;;;;;;;6.80;3.43;;;12.30;1.00;;;;;;5029897;28;20457;-87
2021/10/15 00:24:11;;;;;;;6.60;3.97;;;12.20;1.00;;;;;;5026690;28;20457;-86
2021/10/15 00:26:36;;;;;;;7.20;3.40;;;12.20;1.00;;;;;;5014421;28;20186;-87
2021/10/15 00:29:05;;;;;;;9.30;3.83;;;12.20;1.00;;;;;;5026275;28;20344;-87
2021/10/15 00:31:31;;;;;;;10.53;3.13;;;12.10;1.00;;;;;;5029119;28;20217;-88
2021/10/15 00:33:57;;;;;;;3.87;3.07;;;12.10;1.00;;;;;;5026958;28;20449;-87
2021/10/15 00:36:22;;;;;;;7.10;3.13;;;12.10;1.00;;;;;;5025078;28;20445;-87
2021/10/15 00:38:48;;;;;;;4.03;3.10;;;12.10;1.00;;;;;;5034108;28;20187;-86
2021/10/15 00:41:15;;;;;;;7.00;4.10;;;12.10;1.00;;;;;;5024855;28;20183;-87
2021/10/15 00:44:04;;;;;;;6.73;3.70;;;12.10;1.00;;;;;;5024708;28;20184;-88
2021/10/15 00:46:31;;;;;;;5.20;3.23;;;12.10;1.00;;;;;;5014112;28;20534;-85
2021/10/15 00:48:56;;;;;;;6.30;3.27;;;12.10;1.00;;;;;;5026691;28;20445;-86
2021/10/15 00:51:23;;;;;;;7.93;3.73;;;12.10;1.00;;;;;;5021332;28;20619;-86
2021/10/15 00:53:49;;;;;;;8.73;3.40;;;12.10;1.00;;;;;;5017862;28;20202;-86
2021/10/15 00:56:15;;;;;;;5.87;4.13;;;12.10;1.00;;;;;;5032927;28;20451;-86
2021/10/15 00:58:41;;;;;;;7.10;3.60;;;12.00;1.00;;;;;;5024617;28;20445;-87
2021/10/15 01:01:07;;;;;;;6.97;4.83;;;12.00;1.00;;;;;;5025457;28;20454;-86
2021/10/15 01:03:36;;;;;;;4.80;3.90;;;12.00;1.00;;;;;;5020588;28;20462;-87
2021/10/15 01:06:04;;;;;;;5.07;3.20;;;11.90;1.00;;;;;;5027232;28;20680;-86
2021/10/15 01:08:31;;;;;;;6.50;3.73;;;11.90;1.00;;;;;;5025252;28;20464;-85
2021/10/15 01:10:57;;;;;;;10.80;3.80;;;12.00;1.00;;;;;;5025781;28;20480;-88
2021/10/15 01:13:23;;;;;;;5.23;3.33;;;11.90;1.00;;;;;;5026807;28;20495;-87
2021/10/15 01:15:49;;;;;;;6.73;4.10;;;11.90;1.00;;;;;;5020522;28;20449;-88
2021/10/15 01:18:14;;;;;;;8.03;4.53;;;11.90;1.00;;;;;;5025537;28;22515;-87
2021/10/15 01:20:41;;;;;;;6.67;3.20;;;11.80;1.00;;;;;;5021272;28;20191;-85
2021/10/15 01:23:07;;;;;;;5.43;3.10;;;11.90;1.00;;;;;;5028601;28;20214;-87
2021/10/15 01:25:34;;;;;;;7.03;3.67;;;11.80;1.00;;;;;;5030326;28;20461;-86
2021/10/15 01:28:02;;;;;;;4.60;3.33;;;11.90;1.00;;;;;;5025538;28;21343;-88
2021/10/15 01:30:28;;;;;;;6.67;3.67;;;11.80;1.00;;;;;;5022681;28;20473;-87
2021/10/15 01:32:54;;;;;;;7.00;3.33;;;11.80;1.00;;;;;;5028513;28;20536;-85
2021/10/15 01:35:20;;;;;;;7.43;3.27;;;11.80;1.00;;;;;;5026720;28;20473;-88
2021/10/15 01:37:46;;;;;;;6.60;3.80;;;11.80;1.00;;;;;;5031342;28;20595;-86
2021/10/15 01:40:12;;;;;;;7.80;3.70;;;11.80;1.00;;;;;;5028387;28;20230;-85
2021/10/15 01:42:56;;;;;;;6.70;3.00;;;11.70;1.00;;;;;;5023661;28;20187;-88
2021/10/15 01:45:26;;;;;;;10.60;3.83;;;11.70;1.00;;;;;;5024408;28;20869;-89
2021/10/15 01:47:52;;;;;;;4.23;3.13;;;11.70;1.00;;;;;;5029650;28;21236;-85
2021/10/15 01:50:18;;;;;;;4.07;2.97;;;11.70;1.00;;;;;;5026883;28;20442;-86
2021/10/15 01:52:44;;;;;;;8.37;3.50;;;11.70;1.00;;;;;;5025678;28;21003;-88
2021/10/15 01:55:11;;;;;;;7.67;3.57;;;11.60;1.00;;;;;;5027019;28;20450;-85
2021/10/15 01:57:38;;;;;;;7.23;3.90;;;11.60;1.00;;;;;;5023044;28;20228;-87
2021/10/15 02:00:07;;;;;;;7.20;3.70;;;11.70;1.00;;;;;;5022129;28;20442;-87
2021/10/15 02:02:37;;;;;;;8.30;3.80;;;11.60;1.00;;;;;;5026069;28;20450;-87
2021/10/15 02:05:05;;;;;;;7.00;4.03;;;11.70;1.00;;;;;;5029869;28;20509;-87
2021/10/15 02:07:31;;;;;;;4.10;3.67;;;11.60;1.00;;;;;;5023477;28;20445;-88
2021/10/15 02:09:57;;;;;;;4.53;3.30;;;11.60;1.00;;;;;;5028764;28;20453;-88
2021/10/15 02:12:23;;;;;;;12.50;3.67;;;11.60;1.00;;;;;;5023845;28;20219;-88
2021/10/15 02:14:48;;;;;;;4.70;3.87;;;11.60;1.00;;;;;;5026795;28;20188;-87
2021/10/15 02:17:14;;;;;;;8.47;4.20;;;11.60;1.00;;;;;;5022679;28;20427;-88
2021/10/15 02:19:40;;;;;;;6.80;3.87;;;11.60;1.00;;;;;;5021640;28;20521;-87
2021/10/15 02:22:06;;;;;;;9.23;4.17;;;11.50;1.00;;;;;;5025012;28;20187;-88
2021/10/15 02:24:33;;;;;;;10.03;4.03;;;11.40;1.00;;;;;;5026573;28;20843;-88
2021/10/15 02:26:59;;;;;;;7.40;4.23;;;11.40;1.00;;;;;;5023873;28;20460;-88
2021/10/15 02:29:24;;;;;;;9.40;3.93;;;11.40;1.00;;;;;;5026547;28;20180;-87
2021/10/15 02:31:50;;;;;;;6.00;4.10;;;11.30;1.00;;;;;;5022302;28;20234;-86
2021/10/15 02:34:17;;;;;;;6.10;4.20;;;11.20;1.00;;;;;;5023707;28;20988;-81
2021/10/15 02:36:43;;;;;;;6.03;4.40;;;11.20;1.00;;;;;;5024093;28;20199;-81
2021/10/15 02:39:09;;;;;;;8.50;3.97;;;11.20;1.00;;;;;;5031462;28;20471;-82
2021/10/15 02:41:37;;;;;;;6.17;4.13;;;11.20;1.00;;;;;;5024440;28;20621;-82
2021/10/15 02:44:21;;;;;;;6.77;3.97;;;11.20;1.00;;;;;;5024618;28;20502;-84
2021/10/15 02:46:47;;;;;;;6.13;4.50;;;11.10;1.00;;;;;;5019303;28;20464;-82
2021/10/15 02:49:12;;;;;;;6.47;4.10;;;11.20;1.00;;;;;;5017466;28;21203;-84
2021/10/15 02:51:38;;;;;;;8.10;4.57;;;11.20;1.00;;;;;;5026095;28;20599;-81
2021/10/15 02:54:04;;;;;;;12.37;4.50;;;11.10;1.00;;;;;;5026311;28;20201;-82
2021/10/15 02:56:30;;;;;;;8.90;4.60;;;11.20;1.00;;;;;;5017526;28;20190;-82
2021/10/15 02:58:56;;;;;;;10.70;5.13;;;11.20;1.00;;;;;;5022378;28;20511;-82
2021/10/15 03:01:22;;;;;;;9.30;6.00;;;11.20;1.00;;;;;;5021382;28;20453;-88
2021/10/15 03:03:49;;;;;;;7.13;5.90;;;11.20;1.00;;;;;;5026755;28;20241;-87
2021/10/15 03:06:15;;;;;;;7.73;4.80;;;11.20;1.00;;;;;;5024119;28;20477;-87
2021/10/15 03:08:41;;;;;;;11.87;5.00;;;11.30;1.00;;;;;;5027329;28;20449;-87
2021/10/15 03:11:07;;;;;;;11.27;5.00;;;11.20;1.00;;;;;;5022586;28;20847;-87
2021/10/15 03:13:33;;;;;;;6.57;4.60;;;11.20;1.00;;;;;;5020944;28;20188;-87
2021/10/15 03:15:59;;;;;;;6.87;4.73;;;11.10;1.00;;;;;;5025378;28;20442;-88
2021/10/15 03:18:25;;;;;;;11.93;5.40;;;11.20;1.00;;;;;;5020888;28;20454;-87
2021/10/15 03:20:50;;;;;;;11.20;5.50;;;11.10;1.00;;;;;;5021871;28;20714;-89
2021/10/15 03:23:17;;;;;;;7.10;5.23;;;11.10;1.00;;;;;;5027337;28;20454;-87
2021/10/15 03:25:42;;;;;;;14.20;6.73;;;11.10;1.00;;;;;;5027819;28;20184;-88
2021/10/15 03:28:08;;;;;;;8.23;5.47;;;11.10;1.00;;;;;;5024134;28;20475;-87
2021/10/15 03:30:36;;;;;;;11.23;5.40;;;11.00;1.00;;;;;;5020187;28;20670;-86
2021/10/15 03:33:03;;;;;;;12.10;5.83;;;11.10;1.00;;;;;;5023093;28;20625;-86
2021/10/15 03:35:29;;;;;;;12.10;6.30;;;11.00;1.00;;;;;;5017363;28;20464;-88
2021/10/15 03:37:54;;;;;;;9.50;5.27;;;11.10;1.00;;;;;;5015167;28;20481;-87
2021/10/15 03:40:20;;;;;;;11.07;5.43;;;11.10;1.00;;;;;;5022628;28;20508;-89
2021/10/15 03:42:46;;;;;;;13.20;6.07;;;11.10;1.00;;;;;;5025052;28;20183;-87
2021/10/15 03:45:11;;;;;;;7.13;5.23;;;11.10;1.00;;;;;;5019699;28;21238;-86
2021/10/15 03:47:38;;;;;;;9.33;6.10;;;11.10;1.00;;;;;;5027627;28;20294;-87
2021/10/15 03:50:06;;;;;;;13.47;5.30;;;11.10;1.00;;;;;;5022079;28;20494;-88
2021/10/15 03:52:32;;;;;;;10.17;5.93;;;11.00;1.00;;;;;;5016527;28;20489;-88
2021/10/15 03:54:58;;;;;;;7.53;5.50;;;11.10;1.00;;;;;;5025685;28;20459;-89
2021/10/15 03:57:23;;;;;;;15.93;6.70;;;11.00;1.00;;;;;;5019048;28;20217;-87
2021/10/15 03:59:49;;;;;;;9.90;5.90;;;11.00;1.00;;;;;;5019557;28;20709;-87
2021/10/15 04:02:15;;;;;;;9.10;5.87;;;11.10;1.00;;;;;;5019559;28;20207;-88
2021/10/15 04:04:40;;;;;;;9.97;5.63;;;11.20;1.00;;;;;;5025015;28;20207;-87
2021/10/15 04:07:06;;;;;;;9.27;5.33;;;11.10;1.00;;;;;;5027594;28;20187;-86
2021/10/15 04:09:31;;;;;;;16.13;6.33;;;11.10;1.00;;;;;;5025014;28;20183;-89
2021/10/15 04:11:57;;;;;;;9.60;6.90;;;11.10;1.00;;;;;;5016106;28;21072;-87
2021/10/15 04:14:23;;;;;;;11.27;5.10;;;11.20;1.00;;;;;;5019175;28;20777;-87
2021/10/15 04:16:49;;;;;;;10.50;5.17;;;11.20;1.00;;;;;;5033383;28;20195;-86
2021/10/15 04:19:15;;;;;;;13.83;5.80;;;11.20;1.00;;;;;;5024132;28;20473;-89
2021/10/15 04:21:40;;;;;;;9.03;5.43;;;11.20;1.00;;;;;;5020811;28;20215;-87
2021/10/15 04:24:06;;;;;;;13.70;6.47;;;11.20;1.00;;;;;;5007984;28;20203;-86
2021/10/15 04:26:32;;;;;;;7.40;4.63;;;11.20;1.00;;;;;;5028898;28;20206;-84
2021/10/15 04:28:57;;;;;;;9.53;5.67;;;11.20;1.00;;;;;;5014176;28;20200;-86
2021/10/15 04:31:23;;;;;;;12.90;5.10;;;11.20;1.00;;;;;;5019034;28;20219;-84
2021/10/15 04:33:50;;;;;;;9.70;5.17;;;11.20;1.00;;;;;;5024817;28;20201;-85
2021/10/15 04:36:16;;;;;;;8.87;5.80;;;11.20;1.00;;;;;;5024277;28;20536;-85
2021/10/15 04:38:41;;;;;;;8.13;4.70;;;11.20;1.00;;;;;;5017943;28;20545;-85
2021/10/15 04:41:07;;;;;;;10.93;5.80;;;11.20;1.00;;;;;;5026078;28;20981;-86
2021/10/15 04:43:33;;;;;;;10.17;4.87;;;11.10;1.00;;;;;;5028090;28;20183;-85
2021/10/15 04:45:58;;;;;;;6.50;5.30;;;11.10;1.00;;;;;;5014522;28;20235;-85
2021/10/15 04:48:24;;;;;;;15.93;6.50;;;11.10;1.00;;;;;;5009345;28;20618;-85
2021/10/15 04:50:50;;;;;;;11.90;5.57;;;11.10;1.00;;;;;;5018456;28;20227;-85
2021/10/15 04:53:16;;;;;;;8.03;5.20;;;11.20;1.00;;;;;;5011700;28;20325;-86
2021/10/15 04:55:41;;;;;;;11.57;5.97;;;11.10;1.00;;;;;;5015175;28;20195;-85
2021/10/15 04:58:07;;;;;;;7.10;5.37;;;11.10;1.00;;;;;;5018500;28;20442;-86
2021/10/15 05:00:37;;;;;;;17.03;6.10;;;11.10;1.00;;;;;;5012425;28;20195;-86
2021/10/15 05:03:03;;;;;;;9.70;5.17;;;11.10;1.00;;;;;;5024811;28;20252;-85
2021/10/15 05:05:29;;;;;;;9.27;5.33;;;11.20;1.00;;;;;;5019260;28;20465;-84
2021/10/15 05:07:57;;;;;;;9.30;5.50;;;11.10;1.00;;;;;;5029939;28;20921;-85
2021/10/15 05:10:25;;;;;;;9.80;5.40;;;11.10;1.00;;;;;;5036186;28;20496;-86
2021/10/15 05:12:52;;;;;;;8.00;6.13;;;11.10;1.00;;;;;;5015829;28;20515;-87
2021/10/15 05:15:18;;;;;;;7.27;5.60;;;11.20;1.00;;;;;;5034083;28;20449;-85
2021/10/15 05:17:45;;;;;;;7.77;5.40;;;11.20;1.00;;;;;;5028814;28;20457;-85
2021/10/15 05:20:18;;;;;;;13.60;5.30;;;11.10;1.00;;;;;;5025283;28;20445;-86
2021/10/15 05:22:45;;;;;;;12.87;5.97;;;11.10;1.00;;;;;;5022429;28;20441;-85
2021/10/15 05:25:12;;;;;;;8.87;5.40;;;11.10;1.00;;;;;;5030359;28;20456;-84
2021/10/15 05:27:38;;;;;;;7.47;5.40;;;11.10;1.00;;;;;;5020482;28;20478;-86
2021/10/15 05:30:06;;;;;;;12.30;5.87;;;11.10;1.00;;;;;;5021059;28;20437;-86
2021/10/15 05:32:33;;;;;;;8.57;5.30;;;11.10;1.00;;;;;;5024802;28;20495;-85
2021/10/15 05:34:58;;;;;;;12.00;6.50;;;11.00;1.00;;;;;;5026445;28;20446;-85
2021/10/15 05:37:24;;;;;;;10.07;5.93;;;11.00;1.00;;;;;;5021667;28;20543;-86
2021/10/15 05:39:49;;;;;;;12.13;6.20;;;11.00;1.00;;;;;;5016128;28;20175;-87
2021/10/15 05:42:15;;;;;;;10.87;5.87;;;11.00;1.00;;;;;;5028506;28;20278;-87
2021/10/15 05:44:44;;;;;;;9.30;5.93;;;11.00;1.00;;;;;;5025662;28;20318;-87
2021/10/15 05:47:11;;;;;;;9.60;5.63;;;11.00;1.00;;;;;;5023902;28;20191;-86
2021/10/15 05:49:39;;;;;;;10.67;5.73;;;11.00;1.00;;;;;;5010141;28;20804;-85
2021/10/15 05:52:09;;;;;;;13.10;5.93;;;11.00;1.00;;;;;;5019005;28;20631;-86
2021/10/15 05:54:53;;;;;;;10.57;5.43;;;11.10;1.00;;;;;;5023814;28;20453;-84
2021/10/15 05:59:53;;;;;;;10.73;6.30;;;11.00;1.00;;;;;;5001250;28;20477;-85
2021/10/15 06:02:19;;;;;;;8.77;5.80;;;10.90;1.00;;;;;;5017828;28;20493;-87
2021/10/15 06:15:44;;;;;;;9.53;5.47;;;10.90;1.00;;;;;;5019318;28;20847;-86
2021/10/15 06:18:13;;;;;;;8.33;6.17;;;10.90;1.00;;;;;;5013332;28;20996;-87
2021/10/15 06:20:38;;;;;;;8.40;5.53;;;10.90;1.00;;;;;;5004628;28;20553;-88
2021/10/15 06:23:05;;;;;;;15.90;5.70;;;10.80;1.00;;;;;;5020433;28;20461;-88
2021/10/15 06:25:30;;;;;;;10.77;5.80;;;10.90;1.00;;;;;;5011020;28;20176;-87
2021/10/15 06:28:02;;;;;;;13.17;5.67;;;10.90;1.00;;;;;;5000523;28;20881;-87
2021/10/15 06:30:31;;;;;;;20.00;6.83;;;10.90;1.00;;;;;;5016951;28;20178;-88
2021/10/15 06:32:57;;;;;;;11.47;5.80;;;11.00;1.00;;;;;;5008801;28;20476;-85
2021/10/15 06:35:23;;;;;;;11.00;5.63;;;11.00;1.00;;;;;;5022344;28;20453;-88
2021/10/15 06:37:49;;;;;;;7.87;5.60;;;11.10;1.00;;;;;;5007356;28;20996;-85
2021/10/15 06:40:16;;;;;;;12.93;6.80;;;11.10;1.00;;;;;;5013238;28;20549;-87
2021/10/15 06:42:41;;;;;;;8.87;7.50;;;11.10;1.00;;;;;;5012917;28;21197;-86
2021/10/15 06:45:08;;;;;;;14.80;6.60;;;11.10;1.00;;;;;;5013767;28;20860;-88
2021/10/15 06:47:34;;;;;;;9.27;6.13;;;11.10;1.00;;;;;;5008959;28;20596;-88
2021/10/15 06:49:59;;;;;;;10.13;6.17;;;11.10;1.00;;;;;;5002614;28;20628;-88
2021/10/15 06:52:25;;;;;;;10.63;5.97;;;11.10;1.00;;;;;;5017746;28;21135;-87
2021/10/15 06:54:51;;;;;;;12.87;5.17;;;11.00;1.00;;;;;;5016348;28;20186;-88
2021/10/15 06:57:17;;;;;;;7.67;5.57;;;11.10;1.00;;;;;;5008651;28;20191;-86
2021/10/15 06:59:43;;;;;;;12.00;6.00;;;11.10;1.00;;;;;;5010456;28;20479;-88
2021/10/15 07:02:09;;;;;;;8.17;6.20;;;11.10;1.00;;;;;;5025001;28;20445;-88
2021/10/15 07:04:35;;;;;;;8.87;5.73;;;11.20;1.00;;;;;;5019813;28;20235;-88
2021/10/15 07:07:01;;;;;;;8.10;5.23;;;11.20;1.00;;;;;;5018443;28;20540;-86
2021/10/15 07:09:27;;;;;;;10.13;5.83;;;11.20;1.00;;;;;;5021263;28;20465;-87
2021/10/15 07:11:53;;;;;;;9.97;5.53;;;11.20;1.00;;;;;;5013391;28;20623;-89
2021/10/15 07:14:19;;;;;;;10.13;5.53;;;11.20;1.00;;;;;;5016038;28;20773;-87
2021/10/15 07:16:45;;;;;;;11.30;5.93;;;11.30;1.00;;;;;;5019140;28;20537;-88
2021/10/15 07:19:11;;;;;;;11.13;5.63;;;11.30;1.00;;;;;;5020371;28;20195;-87
2021/10/15 07:21:37;;;;;;;17.70;5.70;;;11.40;1.00;;;;;;5019089;28;20179;-87
2021/10/15 07:24:03;;;;;;;8.77;6.03;;;11.30;1.00;;;;;;5013861;28;20547;-86
2021/10/15 07:26:31;;;;;;;9.40;5.07;;;11.40;1.00;;;;;;5005874;28;21258;-85
2021/10/15 07:28:57;;;;;;;8.87;5.30;;;11.40;1.00;;;;;;5021631;28;20306;-87
2021/10/15 07:31:24;;;;;;;9.73;5.70;;;11.40;1.00;;;;;;5012617;28;21061;-89
2021/10/15 07:33:49;;;;;;;11.77;5.30;;;11.40;1.00;;;;;;4998896;28;21014;-86
2021/10/15 07:36:15;;;;;;;7.70;5.60;;;11.40;1.00;;;;;;5004962;28;20533;-87
2021/10/15 07:38:41;;;;;;;8.90;5.33;;;11.50;1.00;;;;;;5004754;28;20197;-86
2021/10/15 07:41:08;;;;;;;14.03;5.50;;;11.50;1.00;;;;;;5003114;28;20546;-86
2021/10/15 07:43:34;;;;;;;10.33;5.87;;;11.50;1.00;;;;;;5005004;28;20187;-86
2021/10/15 07:46:01;;;;;;;10.93;5.43;;;11.40;1.00;;;;;;5009068;28;20552;-87
2021/10/15 07:48:27;;;;;;;14.43;6.40;;;11.50;1.00;;;;;;5003731;28;20477;-85
2021/10/15 07:50:55;;;;;;;13.90;6.13;;;11.50;1.00;;;;;;5003321;28;20531;-86
2021/10/15 07:53:21;;;;;;;9.93;6.00;;;11.50;1.00;;;;;;4999498;28;20461;-85
2021/10/15 07:55:47;;;;;;;9.13;5.53;;;11.60;1.00;;;;;;5010292;28;20461;-85
2021/10/15 07:58:12;;;;;;;13.50;6.67;;;11.60;1.00;;;;;;5024384;28;20445;-86
2021/10/15 08:00:38;;;;;;;23.70;7.10;;;11.60;1.00;;;;;;5024767;28;20301;-87
2021/10/15 08:03:10;;;;;;;20.00;7.50;;;11.70;1.00;;;;;;5006587;28;20265;-87
2021/10/15 08:05:36;;;;;;;25.83;7.30;;;11.70;1.00;;;;;;5009717;28;20987;-86
2021/10/15 08:08:01;;;;;;;20.03;7.43;;;11.70;1.00;;;;;;5009537;28;20449;-85
2021/10/15 08:10:27;;;;;;;20.17;8.10;;;11.70;1.00;;;;;;5014748;28;20183;-85
2021/10/15 08:12:54;;;;;;;47.67;9.07;;;11.80;1.00;;;;;;5023128;28;20180;-85
2021/10/15 08:15:20;;;;;;;27.73;9.60;;;11.80;1.00;;;;;;5021483;28;20507;-85
2021/10/15 08:17:46;;;;;;;34.37;7.30;;;11.90;1.00;;;;;;5011871;28;20187;-86
2021/10/15 08:20:14;;;;;;;21.37;6.80;;;12.00;1.00;;;;;;5005684;28;20242;-85
2021/10/15 08:22:40;;;;;;;17.93;7.07;;;12.00;1.00;;;;;;5013511;28;20472;-85
2021/10/15 08:25:07;;;;;;;14.47;6.30;;;12.00;1.00;;;;;;4999303;28;20453;-84
2021/10/15 08:27:33;;;;;;;11.80;5.17;;;11.90;1.00;;;;;;5001566;28;20482;-86
2021/10/15 08:29:59;;;;;;;10.77;5.67;;;11.90;1.00;;;;;;5013560;28;21300;-86
2021/10/15 08:32:26;;;;;;;9.53;6.00;;;12.00;1.00;;;;;;5009312;28;20269;-86
2021/10/15 08:34:52;;;;;;;12.27;5.57;;;11.90;1.00;;;;;;5020980;28;20511;-86
2021/10/15 08:37:17;;;;;;;12.43;6.90;;;12.00;1.00;;;;;;5015108;28;21298;-85
2021/10/15 08:39:43;;;;;;;7.70;5.37;;;11.90;1.00;;;;;;5014458;28;20674;-84
2021/10/15 08:42:09;;;;;;;12.70;5.30;;;11.90;1.00;;;;;;5027184;28;20195;-84
2021/10/15 08:44:45;;;;;;;13.70;6.43;;;12.00;1.00;;;;;;5024512;28;20188;-85
2021/10/15 08:47:15;;;;;;;11.03;5.80;;;12.00;1.00;;;;;;5017399;28;20492;-84
2021/10/15 08:49:42;;;;;;;8.87;6.10;;;12.00;1.00;;;;;;5010866;28;20509;-86
2021/10/15 08:52:09;;;;;;;12.53;6.20;;;12.00;1.00;;;;;;5027439;28;20496;-86
2021/10/15 08:54:35;;;;;;;9.43;7.37;;;12.00;1.00;;;;;;5032340;28;20437;-86
2021/10/15 08:57:00;;;;;;;11.70;5.63;;;12.00;1.00;;;;;;5026343;28;20454;-86
2021/10/15 08:59:55;;;;;;;11.40;7.10;;;12.00;1.00;;;;;;5020860;28;20179;-86
2021/10/15 09:02:23;;;;;;;17.30;7.13;;;12.00;1.00;;;;;;5014827;28;20213;-83
2021/10/15 09:04:48;;;;;;;10.80;7.57;;;11.90;1.00;;;;;;5011177;28;20466;-83
2021/10/15 09:07:15;;;;;;;10.67;8.30;;;11.80;28.70;;;;;;5025847;28;20831;-86
2021/10/15 09:09:41;;;;;;;15.57;8.37;;;11.80;99.90;;;;;;5026660;28;20187;-85
2021/10/15 09:12:13;;;;;;;14.80;9.43;;;11.80;99.90;;;;;;5017205;28;20500;-84
2021/10/15 09:14:39;;;;;;;16.33;9.50;;;11.70;99.90;;;;;;5012741;28;20451;-87
2021/10/15 09:17:25;;;;;;;15.10;8.60;;;11.70;99.90;;;;;;5013618;28;20480;-86
2021/10/15 09:19:55;;;;;;;11.10;7.77;;;11.60;99.90;;;;;;5010507;28;21015;-86
2021/10/15 09:22:26;;;;;;;15.13;9.37;;;11.50;99.90;;;;;;5022893;28;20524;-86
2021/10/15 09:25:00;;;;;;;10.57;9.20;;;11.50;1.00;;;;;;5013849;28;20461;-87
2021/10/15 09:27:43;;;;;;;12.40;8.90;;;11.40;1.00;;;;;;5015066;28;20463;-87
2021/10/15 09:30:18;;;;;;;12.50;9.57;;;11.40;99.90;;;;;;5007438;28;20846;-86
2021/10/15 09:32:52;;;;;;;14.00;8.97;;;11.50;1.00;;;;;;5014976;28;20528;-87
2021/10/15 09:35:32;;;;;;;14.70;9.20;;;11.60;99.90;;;;;;5006886;28;21345;-87
2021/10/15 09:38:01;;;;;;;13.00;8.00;;;11.60;32.10;;;;;;5018757;28;20457;-86
2021/10/15 09:40:48;;;;;;;14.50;7.50;;;11.60;99.90;;;;;;5018760;28;20473;-86
2021/10/15 09:43:15;;;;;;;12.13;8.73;;;11.60;99.90;;;;;;5008262;28;20481;-85
2021/10/15 09:45:53;;;;;;;17.83;9.43;;;11.70;1.00;;;;;;5016499;28;20441;-86
2021/10/15 09:48:25;;;;;;;15.87;9.50;;;11.70;1.00;;;;;;5014573;28;20623;-86
2021/10/15 09:51:12;;;;;;;13.57;9.43;;;11.60;1.00;;;;;;5026183;28;20477;-86
2021/10/15 09:53:39;;;;;;;12.40;9.30;;;11.60;1.00;;;;;;5026100;28;21067;-85
2021/10/15 09:56:06;;;;;;;15.30;9.60;;;11.60;99.90;;;;;;5019164;28;20466;-86
2021/10/15 09:58:32;;;;;;;18.10;9.93;;;11.60;99.90;;;;;;5004229;28;20455;-85
2021/10/15 10:00:58;;;;;;;16.10;10.50;;;11.60;1.00;;;;;;5014047;28;20444;-87
2021/10/15 10:03:26;;;;;;;16.67;9.60;;;11.60;1.00;;;;;;5027924;28;20203;-86
2021/10/15 10:05:52;;;;;;;15.47;10.50;;;11.60;99.90;;;;;;5028578;28;21446;-86
2021/10/15 10:08:18;;;;;;;13.50;10.90;;;11.60;99.90;;;;;;5024596;28;21154;-86
2021/10/15 10:10:44;;;;;;;19.17;11.60;;;11.70;99.90;;;;;;5010244;28;20537;-86
2021/10/15 10:13:12;;;;;;;20.03;12.33;;;11.60;1.00;;;;;;5025669;28;20486;-85
2021/10/15 10:15:42;;;;;;;16.83;11.57;;;11.70;99.90;;;;;;5028347;28;20556;-86
2021/10/15 10:18:16;;;;;;;15.80;12.73;;;11.80;99.90;;;;;;5028957;28;20490;-86
2021/10/15 10:20:55;;;;;;;20.43;12.83;;;11.80;99.90;;;;;;5025947;28;20458;-85
2021/10/15 10:23:31;;;;;;;16.20;13.03;;;11.90;99.90;;;;;;5027465;28;20446;-88
2021/10/15 10:25:59;;;;;;;16.30;12.90;;;12.00;99.90;;;;;;5031166;28;20488;-86
2021/10/15 10:28:27;;;;;;;19.23;13.93;;;12.00;99.90;;;;;;5028976;28;20548;-86
2021/10/15 10:30:59;;;;;;;17.03;12.33;;;12.10;99.90;;;;;;5029811;28;20818;-86
2021/10/15 10:33:26;;;;;;;16.30;11.70;;;12.20;99.90;;;;;;5024041;28;20462;-84
2021/10/15 10:35:52;;;;;;;10.70;9.60;;;12.20;99.90;;;;;;5030515;28;20799;-84
2021/10/15 10:38:26;;;;;;;10.07;7.60;;;12.10;20.50;;;;;;5025025;28;20442;-84
2021/10/15 10:41:04;;;;;;;11.30;6.57;;;12.10;99.90;;;;;;5027496;28;20824;-84
2021/10/15 10:43:30;;;;;;;7.97;4.73;;;12.10;77.90;;;;;;5025300;28;20444;-84
2021/10/15 10:46:25;;;;;;;11.00;4.13;;;12.00;1.00;;;;;;5024770;28;20455;-84
2021/10/15 10:48:54;;;;;;;4.23;3.83;;;11.90;99.90;;;;;;5024562;28;20499;-84
2021/10/15 10:51:22;;;;;;;4.43;3.60;;;11.80;99.90;;;;;;5026530;28;20552;-84
2021/10/15 10:54:05;;;;;;;5.13;3.33;;;11.90;99.90;;;;;;5027396;28;20540;-84
2021/10/15 10:56:37;;;;;;;6.57;4.43;;;12.00;99.90;;;;;;5026305;28;20463;-85
2021/10/15 10:59:21;;;;;;;5.73;4.57;;;12.10;99.90;;;;;;5029311;28;20493;-85
2021/10/15 11:02:04;;;;;;;4.50;3.13;;;12.10;99.90;;;;;;5028900;28;20559;-87
2021/10/15 11:04:43;;;;;;;3.90;2.60;;;12.10;99.90;;;;;;5026547;28;20462;-86
2021/10/15 11:07:21;;;;;;;4.40;2.80;;;12.10;99.90;;;;;;5018535;28;20524;-87
2021/10/15 11:09:48;;;;;;;3.90;2.57;;;12.00;87.40;;;;;;5023562;28;20544;-84
2021/10/15 11:12:29;;;;;;;3.63;2.73;;;12.00;53.20;;;;;;5029209;28;20827;-84
2021/10/15 11:15:06;;;;;;;4.40;2.10;;;12.00;58.70;;;;;;5029891;28;20446;-84
2021/10/15 11:17:41;;;;;;;3.93;2.13;;;12.10;58.80;;;;;;5025763;28;20937;-83
2021/10/15 11:20:18;;;;;;;2.10;1.80;;;12.20;22.70;;;;;;5023747;28;20912;-84
2021/10/15 11:22:58;;;;;;;3.00;1.70;;;12.20;11.10;;;;;;5025062;28;20859;-84
2021/10/15 11:25:34;;;;;;;3.80;1.53;;;12.20;1.00;;;;;;5028472;28;20504;-84
2021/10/15 11:28:08;;;;;;;2.47;2.00;;;12.20;1.00;;;;;;5026918;28;20466;-85
2021/10/15 11:30:42;;;;;;;3.37;2.17;;;12.10;1.00;;;;;;5021648;28;22664;-85
2021/10/15 11:33:11;;;;;;;3.03;1.97;;;12.10;1.00;;;;;;5030107;28;21005;-85
2021/10/15 11:35:39;;;;;;;3.93;2.00;;;12.20;1.00;;;;;;5024147;28;20474;-85
2021/10/15 11:38:19;;;;;;;3.30;2.30;;;12.20;1.00;;;;;;5019134;28;20832;-85
2021/10/15 11:40:51;;;;;;;2.77;1.80;;;12.30;1.00;;;;;;5019696;28;20445;-85
2021/10/15 11:43:27;;;;;;;4.30;1.80;;;12.30;1.00;;;;;;5024715;28;20492;-86
2021/10/15 11:46:01;;;;;;;9.87;2.30;;;12.30;1.00;;;;;;5030244;28;21058;-85
2021/10/15 11:48:30;;;;;;;2.80;2.33;;;12.20;1.00;;;;;;5018156;28;20528;-84
2021/10/15 11:51:07;;;;;;;3.70;2.33;;;12.30;1.00;;;;;;5024442;28;20484;-85
2021/10/15 11:53:41;;;;;;;4.13;2.33;;;12.30;1.00;;;;;;5025823;28;20454;-85
2021/10/15 11:56:10;;;;;;;3.10;2.27;;;12.40;1.00;;;;;;5023228;28;20441;-85
2021/10/15 11:58:46;;;;;;;5.13;2.10;;;12.50;1.00;;;;;;5005818;28;22582;-85
2021/10/15 12:01:19;;;;;;;5.40;1.80;;;12.60;1.00;;;;;;5017160;28;21086;-85
2021/10/15 12:04:00;;;;;;;4.40;1.67;;;12.60;1.00;;;;;;5019570;28;20510;-86
2021/10/15 12:06:42;;;;;;;3.43;1.70;;;12.60;1.00;;;;;;5018834;28;21156;-84
2021/10/15 12:09:15;;;;;;;2.40;1.63;;;12.70;1.00;;;;;;5022760;28;20452;-84
2021/10/15 12:11:50;;;;;;;3.93;2.00;;;12.70;1.00;;;;;;5026652;28;20500;-84
2021/10/15 12:14:24;;;;;;;6.67;1.53;;;12.70;1.00;;;;;;5024686;28;20510;-85
2021/10/15 12:16:53;;;;;;;7.00;1.77;;;12.70;1.00;;;;;;5024197;28;20831;-83
2021/10/15 12:19:21;;;;;;;5.10;1.90;;;12.70;1.00;;;;;;5022774;28;20457;-84
2021/10/15 12:21:48;;;;;;;5.00;1.93;;;12.70;1.00;;;;;;5016026;28;20464;-85
2021/10/15 12:24:41;;;;;;;8.50;1.30;;;12.90;1.00;;;;;;5021591;28;20442;-85
2021/10/15 12:27:10;;;;;;;5.70;1.57;;;12.90;1.00;;;;;;5029191;28;20453;-84
2021/10/15 12:29:58;;;;;;;5.30;1.77;;;13.00;1.00;;;;;;5026944;28;20989;-84
2021/10/15 12:32:40;;;;;;;3.70;1.10;;;13.10;1.00;;;;;;5027680;28;20489;-84
2021/10/15 12:35:24;;;;;;;2.17;1.10;;;13.00;1.00;;;;;;5021543;28;20844;-85
2021/10/15 12:37:49;;;;;;;4.00;1.30;;;12.90;1.00;;;;;;5012196;28;20437;-85
2021/10/15 12:40:21;;;;;;;3.97;1.37;;;12.80;1.00;;;;;;5017242;28;20453;-85
2021/10/15 12:43:01;;;;;;;3.10;1.10;;;12.70;1.00;;;;;;5024150;28;20183;-85
2021/10/15 12:45:30;;;;;;;7.80;1.40;;;12.70;1.00;;;;;;5022704;28;20472;-84
2021/10/15 12:48:03;;;;;;;5.80;1.50;;;12.70;1.00;;;;;;5032299;28;20634;-85
2021/10/15 12:50:31;;;;;;;4.70;1.37;;;12.90;1.00;;;;;;5029135;28;20510;-85
2021/10/15 12:52:57;;;;;;;3.77;1.30;;;13.00;1.00;;;;;;5023504;28;20493;-85
2021/10/15 12:55:28;;;;;;;7.30;1.20;;;13.00;1.00;;;;;;5019619;28;20465;-85
2021/10/15 12:58:05;;;;;;;5.17;1.37;;;13.00;1.00;;;;;;5020327;28;20562;-85
2021/10/15 13:00:44;;;;;;;5.40;1.40;;;12.90;1.00;;;;;;5025739;28;20579;-86
2021/10/15 13:03:10;;;;;;;4.53;1.20;;;13.10;1.00;;;;;;5024571;28;20884;-85
2021/10/15 13:05:36;;;;;;;3.17;1.30;;;13.20;1.00;;;;;;5029207;28;20457;-85
2021/10/15 13:08:01;;;;;;;5.37;1.30;;;13.20;1.00;;;;;;5024290;28;20191;-84
2021/10/15 13:10:48;;;;;;;4.93;1.40;;;13.20;1.00;;;;;;5021894;28;20586;-89
2021/10/15 13:13:18;;;;;;;3.57;1.03;;;13.30;1.00;;;;;;5037509;28;20694;-85